sensor_id;sensor_type;location;lat;lon;timestamp;P1;durP1;ratioP1;P2;durP2;ratioP2
38240;SDS011;24037;49.536;8.500;2022-12-28T00:02:16;18.23;;;9.85;;
38240;SDS011;24037;49.536;8.500;2022-12-28T00:04:43;19.40;;;9.93;;
38240;SDS011;24037;49.536;8.500;2022-12-28T00:07:09;15.85;;;10.15;;
38240;SDS011;24037;49.536;8.500;2022-12-28T00:09:35;19.17;;;10.80;;
38240;SDS011;24037;49.536;8.500;2022-12-28T00:12:01;20.70;;;11.27;;
38240;SDS011;24037;49.536;8.500;2022-12-28T00:14:27;15.75;;;10.07;;
38240;SDS011;24037;49.536;8.500;2022-12-28T00:16:54;13.68;;;9.57;;
38240;SDS011;24037;49.536;8.500;2022-12-28T00:19:20;20.23;;;10.90;;
38240;SDS011;24037;49.536;8.500;2022-12-28T00:21:46;20.42;;;10.30;;
38240;SDS011;24037;49.536;8.500;2022-12-28T00:24:22;17.05;;;10.02;;
38240;SDS011;24037;49.536;8.500;2022-12-28T00:26:52;13.35;;;9.07;;
38240;SDS011;24037;49.536;8.500;2022-12-28T00:29:21;16.42;;;9.18;;
38240;SDS011;24037;49.536;8.500;2022-12-28T00:31:49;21.05;;;10.52;;
38240;SDS011;24037;49.536;8.500;2022-12-28T00:34:15;13.25;;;9.02;;
38240;SDS011;24037;49.536;8.500;2022-12-28T00:36:41;17.25;;;10.50;;
38240;SDS011;24037;49.536;8.500;2022-12-28T00:39:08;17.00;;;9.25;;
38240;SDS011;24037;49.536;8.500;2022-12-28T00:41:37;15.30;;;9.93;;
38240;SDS011;24037;49.536;8.500;2022-12-28T00:44:03;17.83;;;9.93;;
38240;SDS011;24037;49.536;8.500;2022-12-28T00:46:30;16.20;;;9.60;;
38240;SDS011;24037;49.536;8.500;2022-12-28T00:48:59;18.48;;;9.52;;
38240;SDS011;24037;49.536;8.500;2022-12-28T00:51:29;17.42;;;10.10;;
38240;SDS011;24037;49.536;8.500;2022-12-28T00:53:58;18.58;;;9.90;;
38240;SDS011;24037;49.536;8.500;2022-12-28T00:56:24;15.32;;;8.90;;
38240;SDS011;24037;49.536;8.500;2022-12-28T00:58:56;17.70;;;8.85;;
38240;SDS011;24037;49.536;8.500;2022-12-28T01:01:24;11.80;;;7.45;;
38240;SDS011;24037;49.536;8.500;2022-12-28T01:03:53;14.80;;;8.80;;
38240;SDS011;24037;49.536;8.500;2022-12-28T01:06:20;14.60;;;9.13;;
38240;SDS011;24037;49.536;8.500;2022-12-28T01:08:47;14.98;;;9.88;;
38240;SDS011;24037;49.536;8.500;2022-12-28T01:11:31;12.68;;;8.45;;
38240;SDS011;24037;49.536;8.500;2022-12-28T01:13:58;14.07;;;8.63;;
38240;SDS011;24037;49.536;8.500;2022-12-28T01:16:26;14.63;;;8.13;;
38240;SDS011;24037;49.536;8.500;2022-12-28T01:18:58;17.27;;;9.20;;
38240;SDS011;24037;49.536;8.500;2022-12-28T01:21:27;17.23;;;9.13;;
38240;SDS011;24037;49.536;8.500;2022-12-28T01:23:59;12.85;;;8.40;;
38240;SDS011;24037;49.536;8.500;2022-12-28T01:26:27;12.93;;;8.48;;
38240;SDS011;24037;49.536;8.500;2022-12-28T01:28:54;13.55;;;9.05;;
38240;SDS011;24037;49.536;8.500;2022-12-28T01:31:22;13.45;;;8.30;;
38240;SDS011;24037;49.536;8.500;2022-12-28T01:33:49;13.82;;;9.23;;
38240;SDS011;24037;49.536;8.500;2022-12-28T01:36:20;12.85;;;8.07;;
38240;SDS011;24037;49.536;8.500;2022-12-28T01:38:50;12.88;;;8.10;;
38240;SDS011;24037;49.536;8.500;2022-12-28T01:41:18;16.95;;;8.70;;
38240;SDS011;24037;49.536;8.500;2022-12-28T01:43:46;12.07;;;7.60;;
38240;SDS011;24037;49.536;8.500;2022-12-28T01:46:35;17.17;;;8.38;;
38240;SDS011;24037;49.536;8.500;2022-12-28T01:54:27;17.77;;;7.60;;
38240;SDS011;24037;49.536;8.500;2022-12-28T01:56:55;14.15;;;8.07;;
38240;SDS011;24037;49.536;8.500;2022-12-28T01:59:23;12.43;;;7.10;;
38240;SDS011;24037;49.536;8.500;2022-12-28T02:01:55;13.25;;;7.72;;
38240;SDS011;24037;49.536;8.500;2022-12-28T02:04:23;10.40;;;6.70;;
38240;SDS011;24037;49.536;8.500;2022-12-28T02:06:50;10.77;;;6.60;;
38240;SDS011;24037;49.536;8.500;2022-12-28T02:09:18;12.98;;;7.20;;
38240;SDS011;24037;49.536;8.500;2022-12-28T02:11:49;11.85;;;7.60;;
38240;SDS011;24037;49.536;8.500;2022-12-28T02:14:16;11.75;;;6.70;;
38240;SDS011;24037;49.536;8.500;2022-12-28T02:16:44;13.45;;;7.05;;
38240;SDS011;24037;49.536;8.500;2022-12-28T02:19:11;13.73;;;7.22;;
38240;SDS011;24037;49.536;8.500;2022-12-28T02:30:43;12.30;;;6.57;;
38240;SDS011;24037;49.536;8.500;2022-12-28T02:33:21;9.98;;;6.63;;
38240;SDS011;24037;49.536;8.500;2022-12-28T02:36:03;11.25;;;6.50;;
38240;SDS011;24037;49.536;8.500;2022-12-28T02:38:47;11.23;;;5.82;;
38240;SDS011;24037;49.536;8.500;2022-12-28T02:41:20;9.45;;;6.20;;
38240;SDS011;24037;49.536;8.500;2022-12-28T02:43:48;13.85;;;6.50;;
38240;SDS011;24037;49.536;8.500;2022-12-28T02:46:17;10.70;;;6.25;;
38240;SDS011;24037;49.536;8.500;2022-12-28T02:49:17;11.90;;;7.18;;
38240;SDS011;24037;49.536;8.500;2022-12-28T02:58:13;9.52;;;6.30;;
38240;SDS011;24037;49.536;8.500;2022-12-28T03:01:18;9.32;;;6.03;;
38240;SDS011;24037;49.536;8.500;2022-12-28T03:04:14;8.20;;;5.55;;
38240;SDS011;24037;49.536;8.500;2022-12-28T03:06:48;8.90;;;5.47;;
38240;SDS011;24037;49.536;8.500;2022-12-28T03:10:01;9.65;;;5.47;;
38240;SDS011;24037;49.536;8.500;2022-12-28T03:12:38;12.18;;;6.85;;
38240;SDS011;24037;49.536;8.500;2022-12-28T03:15:17;10.75;;;5.53;;
38240;SDS011;24037;49.536;8.500;2022-12-28T03:18:00;8.63;;;5.43;;
38240;SDS011;24037;49.536;8.500;2022-12-28T03:20:54;8.57;;;5.57;;
38240;SDS011;24037;49.536;8.500;2022-12-28T03:23:41;8.55;;;5.15;;
38240;SDS011;24037;49.536;8.500;2022-12-28T03:26:30;11.80;;;6.00;;
38240;SDS011;24037;49.536;8.500;2022-12-28T03:29:16;10.23;;;5.30;;
38240;SDS011;24037;49.536;8.500;2022-12-28T03:32:04;8.13;;;4.97;;
38240;SDS011;24037;49.536;8.500;2022-12-28T03:34:32;11.57;;;5.47;;
38240;SDS011;24037;49.536;8.500;2022-12-28T03:40:26;8.18;;;5.35;;
38240;SDS011;24037;49.536;8.500;2022-12-28T03:42:44;7.07;;;4.50;;
38240;SDS011;24037;49.536;8.500;2022-12-28T03:48:24;6.18;;;4.30;;
38240;SDS011;24037;49.536;8.500;2022-12-28T03:50:51;7.05;;;4.10;;
38240;SDS011;24037;49.536;8.500;2022-12-28T03:53:20;6.40;;;4.43;;
38240;SDS011;24037;49.536;8.500;2022-12-28T03:56:04;10.00;;;4.93;;
38240;SDS011;24037;49.536;8.500;2022-12-28T04:01:03;9.07;;;4.13;;
38240;SDS011;24037;49.536;8.500;2022-12-28T04:03:29;7.85;;;4.78;;
38240;SDS011;24037;49.536;8.500;2022-12-28T04:05:55;8.88;;;3.78;;
38240;SDS011;24037;49.536;8.500;2022-12-28T04:08:22;5.60;;;3.80;;
38240;SDS011;24037;49.536;8.500;2022-12-28T04:10:48;8.48;;;4.13;;
38240;SDS011;24037;49.536;8.500;2022-12-28T04:13:15;9.60;;;4.13;;
38240;SDS011;24037;49.536;8.500;2022-12-28T04:15:59;9.15;;;5.43;;
38240;SDS011;24037;49.536;8.500;2022-12-28T04:18:32;5.72;;;3.85;;
38240;SDS011;24037;49.536;8.500;2022-12-28T04:20:59;10.07;;;4.07;;
38240;SDS011;24037;49.536;8.500;2022-12-28T04:23:26;6.28;;;3.97;;
38240;SDS011;24037;49.536;8.500;2022-12-28T04:26:09;8.38;;;4.65;;
38240;SDS011;24037;49.536;8.500;2022-12-28T04:28:38;5.80;;;3.35;;
38240;SDS011;24037;49.536;8.500;2022-12-28T04:31:23;6.95;;;3.55;;
38240;SDS011;24037;49.536;8.500;2022-12-28T04:33:58;6.45;;;3.25;;
38240;SDS011;24037;49.536;8.500;2022-12-28T04:36:25;4.65;;;3.08;;
38240;SDS011;24037;49.536;8.500;2022-12-28T04:38:51;5.15;;;3.25;;
38240;SDS011;24037;49.536;8.500;2022-12-28T04:41:18;4.95;;;3.25;;
38240;SDS011;24037;49.536;8.500;2022-12-28T04:43:44;4.43;;;2.83;;
38240;SDS011;24037;49.536;8.500;2022-12-28T04:46:11;7.72;;;3.50;;
38240;SDS011;24037;49.536;8.500;2022-12-28T04:48:39;5.78;;;3.28;;
38240;SDS011;24037;49.536;8.500;2022-12-28T04:51:06;6.65;;;3.67;;
38240;SDS011;24037;49.536;8.500;2022-12-28T04:53:43;8.18;;;3.58;;
38240;SDS011;24037;49.536;8.500;2022-12-28T04:56:10;4.95;;;2.85;;
38240;SDS011;24037;49.536;8.500;2022-12-28T04:58:37;5.95;;;2.83;;
38240;SDS011;24037;49.536;8.500;2022-12-28T05:01:04;5.47;;;3.00;;
38240;SDS011;24037;49.536;8.500;2022-12-28T05:03:31;6.28;;;3.38;;
38240;SDS011;24037;49.536;8.500;2022-12-28T05:06:05;10.40;;;4.35;;
38240;SDS011;24037;49.536;8.500;2022-12-28T05:08:34;7.65;;;3.40;;
38240;SDS011;24037;49.536;8.500;2022-12-28T05:11:01;4.57;;;2.53;;
38240;SDS011;24037;49.536;8.500;2022-12-28T05:13:32;6.38;;;3.22;;
38240;SDS011;24037;49.536;8.500;2022-12-28T05:16:01;7.78;;;3.28;;
38240;SDS011;24037;49.536;8.500;2022-12-28T05:18:29;7.40;;;3.30;;
38240;SDS011;24037;49.536;8.500;2022-12-28T05:20:59;5.25;;;2.95;;
38240;SDS011;24037;49.536;8.500;2022-12-28T05:23:31;4.68;;;2.95;;
38240;SDS011;24037;49.536;8.500;2022-12-28T05:25:58;10.80;;;2.85;;
38240;SDS011;24037;49.536;8.500;2022-12-28T05:28:24;5.18;;;2.70;;
38240;SDS011;24037;49.536;8.500;2022-12-28T05:30:51;4.60;;;3.30;;
38240;SDS011;24037;49.536;8.500;2022-12-28T05:33:17;7.40;;;2.88;;
38240;SDS011;24037;49.536;8.500;2022-12-28T05:35:44;5.55;;;3.53;;
38240;SDS011;24037;49.536;8.500;2022-12-28T05:38:10;10.13;;;3.67;;
38240;SDS011;24037;49.536;8.500;2022-12-28T05:40:36;6.07;;;3.03;;
38240;SDS011;24037;49.536;8.500;2022-12-28T05:43:02;5.88;;;3.38;;
38240;SDS011;24037;49.536;8.500;2022-12-28T05:45:28;9.25;;;3.72;;
38240;SDS011;24037;49.536;8.500;2022-12-28T05:47:55;5.43;;;3.40;;
38240;SDS011;24037;49.536;8.500;2022-12-28T05:50:21;6.63;;;3.38;;
38240;SDS011;24037;49.536;8.500;2022-12-28T05:52:47;6.57;;;3.92;;
38240;SDS011;24037;49.536;8.500;2022-12-28T05:55:13;8.45;;;3.45;;
38240;SDS011;24037;49.536;8.500;2022-12-28T05:57:39;8.88;;;3.92;;
38240;SDS011;24037;49.536;8.500;2022-12-28T06:00:06;7.40;;;2.72;;
38240;SDS011;24037;49.536;8.500;2022-12-28T06:02:37;5.90;;;3.45;;
38240;SDS011;24037;49.536;8.500;2022-12-28T06:05:04;8.77;;;3.50;;
38240;SDS011;24037;49.536;8.500;2022-12-28T06:07:30;6.00;;;3.33;;
38240;SDS011;24037;49.536;8.500;2022-12-28T06:09:56;7.43;;;3.38;;
38240;SDS011;24037;49.536;8.500;2022-12-28T06:12:22;5.65;;;3.22;;
38240;SDS011;24037;49.536;8.500;2022-12-28T06:14:49;6.07;;;3.75;;
38240;SDS011;24037;49.536;8.500;2022-12-28T06:17:15;7.50;;;3.47;;
38240;SDS011;24037;49.536;8.500;2022-12-28T06:19:41;11.68;;;3.78;;
38240;SDS011;24037;49.536;8.500;2022-12-28T06:22:07;4.95;;;2.95;;
38240;SDS011;24037;49.536;8.500;2022-12-28T06:24:33;6.50;;;3.53;;
38240;SDS011;24037;49.536;8.500;2022-12-28T06:27:01;5.82;;;3.13;;
38240;SDS011;24037;49.536;8.500;2022-12-28T06:29:29;6.80;;;2.83;;
38240;SDS011;24037;49.536;8.500;2022-12-28T06:31:55;7.07;;;3.15;;
38240;SDS011;24037;49.536;8.500;2022-12-28T06:34:26;6.10;;;2.78;;
38240;SDS011;24037;49.536;8.500;2022-12-28T06:36:52;5.30;;;2.78;;
38240;SDS011;24037;49.536;8.500;2022-12-28T06:39:18;4.40;;;3.15;;
38240;SDS011;24037;49.536;8.500;2022-12-28T06:41:44;5.72;;;3.38;;
38240;SDS011;24037;49.536;8.500;2022-12-28T06:44:11;5.40;;;2.45;;
38240;SDS011;24037;49.536;8.500;2022-12-28T06:46:38;5.40;;;2.55;;
38240;SDS011;24037;49.536;8.500;2022-12-28T06:49:08;5.23;;;2.90;;
38240;SDS011;24037;49.536;8.500;2022-12-28T06:51:35;8.25;;;2.75;;
38240;SDS011;24037;49.536;8.500;2022-12-28T06:54:06;8.68;;;3.25;;
38240;SDS011;24037;49.536;8.500;2022-12-28T06:56:34;5.07;;;2.80;;
38240;SDS011;24037;49.536;8.500;2022-12-28T06:59:00;4.57;;;2.45;;
38240;SDS011;24037;49.536;8.500;2022-12-28T07:01:28;8.65;;;4.63;;
38240;SDS011;24037;49.536;8.500;2022-12-28T07:03:57;6.82;;;2.80;;
38240;SDS011;24037;49.536;8.500;2022-12-28T07:06:27;6.07;;;2.95;;
38240;SDS011;24037;49.536;8.500;2022-12-28T07:09:00;5.15;;;2.80;;
38240;SDS011;24037;49.536;8.500;2022-12-28T07:11:29;7.35;;;3.50;;
38240;SDS011;24037;49.536;8.500;2022-12-28T07:13:55;6.40;;;2.10;;
38240;SDS011;24037;49.536;8.500;2022-12-28T07:16:22;4.30;;;2.20;;
38240;SDS011;24037;49.536;8.500;2022-12-28T07:18:50;4.57;;;2.35;;
38240;SDS011;24037;49.536;8.500;2022-12-28T07:23:47;5.93;;;3.13;;
38240;SDS011;24037;49.536;8.500;2022-12-28T07:26:15;6.45;;;2.70;;
38240;SDS011;24037;49.536;8.500;2022-12-28T07:28:45;11.37;;;3.27;;
38240;SDS011;24037;49.536;8.500;2022-12-28T07:31:13;5.70;;;3.20;;
38240;SDS011;24037;49.536;8.500;2022-12-28T07:33:44;8.82;;;4.15;;
38240;SDS011;24037;49.536;8.500;2022-12-28T07:36:12;5.40;;;2.50;;
38240;SDS011;24037;49.536;8.500;2022-12-28T07:38:40;6.22;;;2.78;;
38240;SDS011;24037;49.536;8.500;2022-12-28T07:41:08;4.82;;;2.15;;
38240;SDS011;24037;49.536;8.500;2022-12-28T07:43:39;6.57;;;3.45;;
38240;SDS011;24037;49.536;8.500;2022-12-28T07:46:06;3.08;;;2.00;;
38240;SDS011;24037;49.536;8.500;2022-12-28T07:48:37;5.55;;;2.83;;
38240;SDS011;24037;49.536;8.500;2022-12-28T07:53:42;4.47;;;2.17;;
38240;SDS011;24037;49.536;8.500;2022-12-28T07:56:10;5.45;;;2.33;;
38240;SDS011;24037;49.536;8.500;2022-12-28T07:58:36;4.60;;;1.92;;
38240;SDS011;24037;49.536;8.500;2022-12-28T08:01:07;3.97;;;2.08;;
38240;SDS011;24037;49.536;8.500;2022-12-28T08:03:36;3.78;;;2.35;;
38240;SDS011;24037;49.536;8.500;2022-12-28T08:06:04;6.25;;;2.22;;
38240;SDS011;24037;49.536;8.500;2022-12-28T08:08:39;6.10;;;1.98;;
38240;SDS011;24037;49.536;8.500;2022-12-28T08:11:08;4.20;;;1.77;;
38240;SDS011;24037;49.536;8.500;2022-12-28T08:13:37;4.85;;;1.60;;
38240;SDS011;24037;49.536;8.500;2022-12-28T08:16:05;4.70;;;2.22;;
38240;SDS011;24037;49.536;8.500;2022-12-28T08:18:32;6.63;;;1.80;;
38240;SDS011;24037;49.536;8.500;2022-12-28T08:21:00;4.22;;;1.67;;
38240;SDS011;24037;49.536;8.500;2022-12-28T08:23:27;2.83;;;1.77;;
38240;SDS011;24037;49.536;8.500;2022-12-28T08:25:54;4.70;;;2.20;;
38240;SDS011;24037;49.536;8.500;2022-12-28T08:28:21;3.38;;;1.92;;
38240;SDS011;24037;49.536;8.500;2022-12-28T08:30:47;4.78;;;2.00;;
38240;SDS011;24037;49.536;8.500;2022-12-28T08:33:13;5.55;;;2.00;;
38240;SDS011;24037;49.536;8.500;2022-12-28T08:35:39;3.70;;;2.22;;
38240;SDS011;24037;49.536;8.500;2022-12-28T08:38:05;4.88;;;2.03;;
38240;SDS011;24037;49.536;8.500;2022-12-28T08:40:31;6.43;;;1.83;;
38240;SDS011;24037;49.536;8.500;2022-12-28T08:42:58;2.65;;;1.60;;
38240;SDS011;24037;49.536;8.500;2022-12-28T08:45:24;5.20;;;2.25;;
38240;SDS011;24037;49.536;8.500;2022-12-28T08:47:51;4.80;;;2.17;;
38240;SDS011;24037;49.536;8.500;2022-12-28T08:50:18;4.65;;;3.33;;
38240;SDS011;24037;49.536;8.500;2022-12-28T08:52:44;6.80;;;1.65;;
38240;SDS011;24037;49.536;8.500;2022-12-28T08:55:10;5.85;;;1.40;;
38240;SDS011;24037;49.536;8.500;2022-12-28T08:57:36;4.32;;;1.70;;
38240;SDS011;24037;49.536;8.500;2022-12-28T09:00:04;2.80;;;1.33;;
38240;SDS011;24037;49.536;8.500;2022-12-28T09:02:31;3.33;;;1.55;;
38240;SDS011;24037;49.536;8.500;2022-12-28T09:04:57;4.18;;;1.67;;
38240;SDS011;24037;49.536;8.500;2022-12-28T09:07:23;5.57;;;2.20;;
38240;SDS011;24037;49.536;8.500;2022-12-28T09:09:49;3.38;;;1.55;;
38240;SDS011;24037;49.536;8.500;2022-12-28T09:12:15;3.53;;;1.75;;
38240;SDS011;24037;49.536;8.500;2022-12-28T09:14:41;4.32;;;2.03;;
38240;SDS011;24037;49.536;8.500;2022-12-28T09:17:08;2.10;;;1.00;;
38240;SDS011;24037;49.536;8.500;2022-12-28T09:19:34;7.95;;;2.67;;
38240;SDS011;24037;49.536;8.500;2022-12-28T09:22:00;3.70;;;1.60;;
38240;SDS011;24037;49.536;8.500;2022-12-28T09:24:26;2.90;;;1.38;;
38240;SDS011;24037;49.536;8.500;2022-12-28T09:26:52;4.28;;;1.70;;
38240;SDS011;24037;49.536;8.500;2022-12-28T09:29:19;6.30;;;1.45;;
38240;SDS011;24037;49.536;8.500;2022-12-28T09:31:46;6.03;;;1.40;;
38240;SDS011;24037;49.536;8.500;2022-12-28T09:34:12;4.55;;;1.55;;
38240;SDS011;24037;49.536;8.500;2022-12-28T09:36:39;4.53;;;1.52;;
38240;SDS011;24037;49.536;8.500;2022-12-28T09:39:08;3.00;;;1.52;;
38240;SDS011;24037;49.536;8.500;2022-12-28T09:47:39;3.30;;;1.55;;
38240;SDS011;24037;49.536;8.500;2022-12-28T09:52:45;1.95;;;0.98;;
38240;SDS011;24037;49.536;8.500;2022-12-28T09:55:17;3.10;;;1.00;;
38240;SDS011;24037;49.536;8.500;2022-12-28T09:57:45;2.85;;;1.30;;
38240;SDS011;24037;49.536;8.500;2022-12-28T10:00:18;1.42;;;0.73;;
38240;SDS011;24037;49.536;8.500;2022-12-28T10:02:51;3.65;;;1.10;;
38240;SDS011;24037;49.536;8.500;2022-12-28T10:05:24;2.60;;;1.10;;
38240;SDS011;24037;49.536;8.500;2022-12-28T10:07:52;4.43;;;1.23;;
38240;SDS011;24037;49.536;8.500;2022-12-28T10:10:21;1.33;;;0.77;;
38240;SDS011;24037;49.536;8.500;2022-12-28T10:12:49;1.73;;;0.60;;
38240;SDS011;24037;49.536;8.500;2022-12-28T10:15:16;2.90;;;0.75;;
38240;SDS011;24037;49.536;8.500;2022-12-28T10:17:43;3.90;;;0.93;;
38240;SDS011;24037;49.536;8.500;2022-12-28T10:20:17;6.97;;;1.10;;
38240;SDS011;24037;49.536;8.500;2022-12-28T10:22:52;2.25;;;0.82;;
38240;SDS011;24037;49.536;8.500;2022-12-28T10:25:21;3.45;;;1.02;;
38240;SDS011;24037;49.536;8.500;2022-12-28T10:27:49;2.38;;;1.00;;
38240;SDS011;24037;49.536;8.500;2022-12-28T10:30:20;2.25;;;1.10;;
38240;SDS011;24037;49.536;8.500;2022-12-28T10:32:52;2.38;;;1.00;;
38240;SDS011;24037;49.536;8.500;2022-12-28T10:35:21;4.07;;;1.83;;
38240;SDS011;24037;49.536;8.500;2022-12-28T10:37:53;3.67;;;1.00;;
38240;SDS011;24037;49.536;8.500;2022-12-28T10:40:34;2.38;;;1.27;;
38240;SDS011;24037;49.536;8.500;2022-12-28T10:43:02;2.25;;;0.95;;
38240;SDS011;24037;49.536;8.500;2022-12-28T10:45:37;4.15;;;0.80;;
38240;SDS011;24037;49.536;8.500;2022-12-28T10:48:15;3.65;;;1.00;;
38240;SDS011;24037;49.536;8.500;2022-12-28T10:50:51;2.63;;;1.00;;
38240;SDS011;24037;49.536;8.500;2022-12-28T10:53:42;3.70;;;0.93;;
38240;SDS011;24037;49.536;8.500;2022-12-28T10:58:48;2.75;;;0.60;;
38240;SDS011;24037;49.536;8.500;2022-12-28T11:01:24;3.03;;;0.65;;
38240;SDS011;24037;49.536;8.500;2022-12-28T11:04:06;5.82;;;0.70;;
38240;SDS011;24037;49.536;8.500;2022-12-28T11:06:49;4.68;;;1.33;;
38240;SDS011;24037;49.536;8.500;2022-12-28T11:11:46;2.92;;;1.20;;
38240;SDS011;24037;49.536;8.500;2022-12-28T11:14:16;2.42;;;0.70;;
38240;SDS011;24037;49.536;8.500;2022-12-28T11:16:53;3.45;;;1.30;;
38240;SDS011;24037;49.536;8.500;2022-12-28T11:19:19;5.32;;;1.02;;
38240;SDS011;24037;49.536;8.500;2022-12-28T11:21:48;3.28;;;0.70;;
38240;SDS011;24037;49.536;8.500;2022-12-28T11:24:14;1.65;;;0.68;;
38240;SDS011;24037;49.536;8.500;2022-12-28T11:26:43;2.08;;;0.80;;
38240;SDS011;24037;49.536;8.500;2022-12-28T11:29:14;2.40;;;0.95;;
38240;SDS011;24037;49.536;8.500;2022-12-28T11:31:46;2.67;;;1.13;;
38240;SDS011;24037;49.536;8.500;2022-12-28T11:34:28;3.83;;;1.83;;
38240;SDS011;24037;49.536;8.500;2022-12-28T11:36:56;3.28;;;1.00;;
38240;SDS011;24037;49.536;8.500;2022-12-28T11:41:52;3.80;;;1.30;;
38240;SDS011;24037;49.536;8.500;2022-12-28T11:44:47;3.25;;;1.30;;
38240;SDS011;24037;49.536;8.500;2022-12-28T11:49:43;2.92;;;1.13;;
38240;SDS011;24037;49.536;8.500;2022-12-28T11:54:53;2.85;;;1.17;;
38240;SDS011;24037;49.536;8.500;2022-12-28T11:57:40;2.30;;;1.30;;
38240;SDS011;24037;49.536;8.500;2022-12-28T12:10:39;2.50;;;1.17;;
38240;SDS011;24037;49.536;8.500;2022-12-28T12:15:54;1.02;;;0.70;;
38240;SDS011;24037;49.536;8.500;2022-12-28T12:18:25;3.05;;;1.50;;
38240;SDS011;24037;49.536;8.500;2022-12-28T12:21:06;2.70;;;1.20;;
38240;SDS011;24037;49.536;8.500;2022-12-28T12:29:17;4.80;;;1.20;;
38240;SDS011;24037;49.536;8.500;2022-12-28T12:32:11;5.47;;;2.28;;
38240;SDS011;24037;49.536;8.500;2022-12-28T12:34:50;4.60;;;2.40;;
38240;SDS011;24037;49.536;8.500;2022-12-28T13:02:45;4.65;;;1.52;;
38240;SDS011;24037;49.536;8.500;2022-12-28T13:05:33;4.05;;;1.45;;
38240;SDS011;24037;49.536;8.500;2022-12-28T13:08:03;2.05;;;1.00;;
38240;SDS011;24037;49.536;8.500;2022-12-28T13:10:33;4.05;;;1.63;;
38240;SDS011;24037;49.536;8.500;2022-12-28T13:13:05;4.65;;;1.02;;
38240;SDS011;24037;49.536;8.500;2022-12-28T13:15:32;1.35;;;0.75;;
38240;SDS011;24037;49.536;8.500;2022-12-28T13:18:05;1.85;;;1.00;;
38240;SDS011;24037;49.536;8.500;2022-12-28T13:20:40;3.50;;;1.20;;
38240;SDS011;24037;49.536;8.500;2022-12-28T13:23:16;3.75;;;0.88;;
38240;SDS011;24037;49.536;8.500;2022-12-28T13:25:46;4.63;;;0.80;;
38240;SDS011;24037;49.536;8.500;2022-12-28T13:28:22;2.72;;;0.90;;
38240;SDS011;24037;49.536;8.500;2022-12-28T13:30:57;2.40;;;0.75;;
38240;SDS011;24037;49.536;8.500;2022-12-28T13:33:31;2.67;;;1.35;;
38240;SDS011;24037;49.536;8.500;2022-12-28T13:36:31;2.78;;;1.00;;
38240;SDS011;24037;49.536;8.500;2022-12-28T13:39:03;4.65;;;1.48;;
38240;SDS011;24037;49.536;8.500;2022-12-28T13:41:34;3.13;;;1.30;;
38240;SDS011;24037;49.536;8.500;2022-12-28T13:44:06;2.35;;;0.95;;
38240;SDS011;24037;49.536;8.500;2022-12-28T13:46:55;2.53;;;0.95;;
38240;SDS011;24037;49.536;8.500;2022-12-28T13:49:30;2.88;;;0.95;;
38240;SDS011;24037;49.536;8.500;2022-12-28T13:52:04;2.63;;;0.93;;
38240;SDS011;24037;49.536;8.500;2022-12-28T13:54:33;6.32;;;1.35;;
38240;SDS011;24037;49.536;8.500;2022-12-28T13:57:01;3.38;;;1.15;;
38240;SDS011;24037;49.536;8.500;2022-12-28T13:59:27;4.10;;;1.60;;
38240;SDS011;24037;49.536;8.500;2022-12-28T14:01:53;3.25;;;1.10;;
38240;SDS011;24037;49.536;8.500;2022-12-28T14:04:23;2.72;;;1.23;;
38240;SDS011;24037;49.536;8.500;2022-12-28T14:06:51;4.57;;;1.30;;
38240;SDS011;24037;49.536;8.500;2022-12-28T14:09:18;2.88;;;0.98;;
38240;SDS011;24037;49.536;8.500;2022-12-28T14:11:45;1.45;;;0.80;;
38240;SDS011;24037;49.536;8.500;2022-12-28T14:14:13;4.35;;;1.50;;
38240;SDS011;24037;49.536;8.500;2022-12-28T14:16:40;3.88;;;1.52;;
38240;SDS011;24037;49.536;8.500;2022-12-28T14:19:07;2.92;;;1.50;;
38240;SDS011;24037;49.536;8.500;2022-12-28T14:21:43;2.03;;;0.88;;
38240;SDS011;24037;49.536;8.500;2022-12-28T14:24:11;2.72;;;1.20;;
38240;SDS011;24037;49.536;8.500;2022-12-28T14:26:58;2.20;;;1.10;;
38240;SDS011;24037;49.536;8.500;2022-12-28T14:29:31;4.40;;;1.10;;
38240;SDS011;24037;49.536;8.500;2022-12-28T14:32:01;3.70;;;0.80;;
38240;SDS011;24037;49.536;8.500;2022-12-28T14:34:30;3.00;;;1.33;;
38240;SDS011;24037;49.536;8.500;2022-12-28T14:36:59;4.88;;;1.60;;
38240;SDS011;24037;49.536;8.500;2022-12-28T14:42:04;2.58;;;1.08;;
38240;SDS011;24037;49.536;8.500;2022-12-28T14:44:40;3.17;;;0.85;;
38240;SDS011;24037;49.536;8.500;2022-12-28T14:49:59;2.03;;;0.70;;
38240;SDS011;24037;49.536;8.500;2022-12-28T14:55:03;2.47;;;0.77;;
38240;SDS011;24037;49.536;8.500;2022-12-28T14:57:43;3.83;;;0.95;;
38240;SDS011;24037;49.536;8.500;2022-12-28T15:00:21;2.53;;;1.10;;
38240;SDS011;24037;49.536;8.500;2022-12-28T15:02:49;6.15;;;1.55;;
38240;SDS011;24037;49.536;8.500;2022-12-28T15:08:01;4.00;;;1.15;;
38240;SDS011;24037;49.536;8.500;2022-12-28T15:10:28;4.65;;;1.10;;
38240;SDS011;24037;49.536;8.500;2022-12-28T15:12:54;1.88;;;0.80;;
38240;SDS011;24037;49.536;8.500;2022-12-28T15:15:20;3.80;;;1.15;;
38240;SDS011;24037;49.536;8.500;2022-12-28T15:17:46;4.25;;;1.65;;
38240;SDS011;24037;49.536;8.500;2022-12-28T15:20:12;3.30;;;1.23;;
38240;SDS011;24037;49.536;8.500;2022-12-28T15:22:39;2.85;;;1.27;;
38240;SDS011;24037;49.536;8.500;2022-12-28T15:25:06;7.90;;;4.60;;
38240;SDS011;24037;49.536;8.500;2022-12-28T15:27:36;188.48;;;91.05;;
38240;SDS011;24037;49.536;8.500;2022-12-28T15:30:04;84.35;;;38.80;;
38240;SDS011;24037;49.536;8.500;2022-12-28T15:32:30;274.95;;;124.43;;
38240;SDS011;24037;49.536;8.500;2022-12-28T15:34:56;56.58;;;26.27;;
38240;SDS011;24037;49.536;8.500;2022-12-28T15:37:22;176.63;;;87.30;;
38240;SDS011;24037;49.536;8.500;2022-12-28T15:39:48;176.90;;;87.25;;
38240;SDS011;24037;49.536;8.500;2022-12-28T15:42:15;53.20;;;27.92;;
38240;SDS011;24037;49.536;8.500;2022-12-28T15:44:41;90.72;;;47.53;;
38240;SDS011;24037;49.536;8.500;2022-12-28T15:47:07;30.05;;;13.55;;
38240;SDS011;24037;49.536;8.500;2022-12-28T15:49:33;62.08;;;29.75;;
38240;SDS011;24037;49.536;8.500;2022-12-28T15:51:59;186.65;;;91.07;;
38240;SDS011;24037;49.536;8.500;2022-12-28T15:54:25;305.65;;;144.90;;
38240;SDS011;24037;49.536;8.500;2022-12-28T15:56:52;220.15;;;101.32;;
38240;SDS011;24037;49.536;8.500;2022-12-28T15:59:19;181.48;;;88.72;;
38240;SDS011;24037;49.536;8.500;2022-12-28T16:01:45;199.18;;;104.85;;
38240;SDS011;24037;49.536;8.500;2022-12-28T16:04:12;85.82;;;47.10;;
38240;SDS011;24037;49.536;8.500;2022-12-28T16:06:39;14.85;;;7.60;;
38240;SDS011;24037;49.536;8.500;2022-12-28T16:09:05;225.52;;;120.97;;
38240;SDS011;24037;49.536;8.500;2022-12-28T16:11:31;205.48;;;111.60;;
38240;SDS011;24037;49.536;8.500;2022-12-28T16:13:59;84.88;;;47.42;;
38240;SDS011;24037;49.536;8.500;2022-12-28T16:16:28;35.65;;;19.77;;
38240;SDS011;24037;49.536;8.500;2022-12-28T16:18:56;69.13;;;43.20;;
38240;SDS011;24037;49.536;8.500;2022-12-28T16:21:23;72.80;;;43.75;;
38240;SDS011;24037;49.536;8.500;2022-12-28T16:23:50;50.47;;;30.63;;
38240;SDS011;24037;49.536;8.500;2022-12-28T16:26:17;24.83;;;17.50;;
38240;SDS011;24037;49.536;8.500;2022-12-28T16:28:44;10.82;;;7.03;;
38240;SDS011;24037;49.536;8.500;2022-12-28T16:31:24;18.98;;;9.00;;
38240;SDS011;24037;49.536;8.500;2022-12-28T16:33:58;33.42;;;19.38;;
38240;SDS011;24037;49.536;8.500;2022-12-28T16:36:25;32.65;;;18.80;;
38240;SDS011;24037;49.536;8.500;2022-12-28T16:38:52;35.97;;;24.13;;
38240;SDS011;24037;49.536;8.500;2022-12-28T16:41:22;12.18;;;7.65;;
38240;SDS011;24037;49.536;8.500;2022-12-28T16:43:49;15.02;;;6.22;;
38240;SDS011;24037;49.536;8.500;2022-12-28T16:46:15;7.80;;;4.72;;
38240;SDS011;24037;49.536;8.500;2022-12-28T16:48:42;27.70;;;18.90;;
38240;SDS011;24037;49.536;8.500;2022-12-28T16:51:09;12.57;;;7.45;;